sensor_id;sensor_type;location;lat;lon;timestamp;pressure;altitude;pressure_sealevel;temperature;humidity
56668;BME280;42542;48.360;10.958;2024-01-27T00:00:31;97698.16;;;3.12;94.63
56668;BME280;42542;48.360;10.958;2024-01-27T00:03:33;97691.66;;;3.02;94.36
56668;BME280;42542;48.360;10.958;2024-01-27T00:06:35;97680.69;;;2.93;94.72
56668;BME280;42542;48.360;10.958;2024-01-27T00:09:38;97687.31;;;2.84;95.93
56668;BME280;42542;48.360;10.958;2024-01-27T00:12:40;97685.97;;;2.75;96.26
56668;BME280;42542;48.360;10.958;2024-01-27T00:15:42;97697.84;;;2.67;96.25
56668;BME280;42542;48.360;10.958;2024-01-27T00:18:44;97693.81;;;2.60;96.39
56668;BME280;42542;48.360;10.958;2024-01-27T00:21:45;97708.34;;;2.51;96.56
56668;BME280;42542;48.360;10.958;2024-01-27T00:24:47;97714.16;;;2.41;96.87
56668;BME280;42542;48.360;10.958;2024-01-27T00:27:50;97705.91;;;2.29;96.73
56668;BME280;42542;48.360;10.958;2024-01-27T00:30:52;97702.78;;;2.21;96.84
56668;BME280;42542;48.360;10.958;2024-01-27T00:33:54;97707.59;;;2.13;97.49
56668;BME280;42542;48.360;10.958;2024-01-27T00:36:55;97716.72;;;2.06;98.25
56668;BME280;42542;48.360;10.958;2024-01-27T00:39:57;97731.19;;;1.98;98.24
56668;BME280;42542;48.360;10.958;2024-01-27T00:42:59;97732.41;;;1.90;99.30
56668;BME280;42542;48.360;10.958;2024-01-27T00:46:01;97731.84;;;1.84;100.00
56668;BME280;42542;48.360;10.958;2024-01-27T00:49:03;97728.69;;;1.76;100.00
56668;BME280;42542;48.360;10.958;2024-01-27T00:52:05;97733.28;;;1.72;100.00
56668;BME280;42542;48.360;10.958;2024-01-27T00:55:08;97727.22;;;1.70;100.00
56668;BME280;42542;48.360;10.958;2024-01-27T00:58:10;97729.13;;;1.67;100.00
56668;BME280;42542;48.360;10.958;2024-01-27T01:01:12;97731.06;;;1.63;100.00
56668;BME280;42542;48.360;10.958;2024-01-27T01:04:14;97729.41;;;1.61;100.00
56668;BME280;42542;48.360;10.958;2024-01-27T01:07:16;97720.81;;;1.57;100.00
56668;BME280;42542;48.360;10.958;2024-01-27T01:10:18;97732.25;;;1.56;100.00
56668;BME280;42542;48.360;10.958;2024-01-27T01:13:21;97727.19;;;1.51;100.00
56668;BME280;42542;48.360;10.958;2024-01-27T01:16:23;97727.28;;;1.50;100.00
56668;BME280;42542;48.360;10.958;2024-01-27T01:19:24;97737.03;;;1.48;100.00
56668;BME280;42542;48.360;10.958;2024-01-27T01:22:26;97742.41;;;1.45;100.00
56668;BME280;42542;48.360;10.958;2024-01-27T01:25:29;97747.03;;;1.40;100.00
56668;BME280;42542;48.360;10.958;2024-01-27T01:28:30;97740.22;;;1.36;100.00
56668;BME280;42542;48.360;10.958;2024-01-27T01:31:35;97747.38;;;1.32;100.00
56668;BME280;42542;48.360;10.958;2024-01-27T01:34:36;97740.56;;;1.28;100.00
56668;BME280;42542;48.360;10.958;2024-01-27T01:37:38;97750.28;;;1.26;100.00
56668;BME280;42542;48.360;10.958;2024-01-27T01:40:41;97746.00;;;1.24;100.00
56668;BME280;42542;48.360;10.958;2024-01-27T01:43:44;97745.09;;;1.25;100.00
56668;BME280;42542;48.360;10.958;2024-01-27T01:46:45;97750.22;;;1.28;100.00
56668;BME280;42542;48.360;10.958;2024-01-27T01:49:48;97753.50;;;1.33;100.00
56668;BME280;42542;48.360;10.958;2024-01-27T01:52:51;97763.78;;;1.39;100.00
56668;BME280;42542;48.360;10.958;2024-01-27T01:55:55;97762.63;;;1.44;100.00
56668;BME280;42542;48.360;10.958;2024-01-27T01:58:57;97766.81;;;1.50;100.00
56668;BME280;42542;48.360;10.958;2024-01-27T02:01:59;97763.09;;;1.54;100.00
56668;BME280;42542;48.360;10.958;2024-01-27T02:05:01;97759.31;;;1.60;100.00
56668;BME280;42542;48.360;10.958;2024-01-27T02:08:03;97760.03;;;1.63;100.00
56668;BME280;42542;48.360;10.958;2024-01-27T02:11:06;97766.81;;;1.69;100.00
56668;BME280;42542;48.360;10.958;2024-01-27T02:14:08;97770.38;;;1.68;100.00
56668;BME280;42542;48.360;10.958;2024-01-27T02:17:10;97781.44;;;1.76;100.00
56668;BME280;42542;48.360;10.958;2024-01-27T02:20:12;97778.72;;;1.77;100.00
56668;BME280;42542;48.360;10.958;2024-01-27T02:23:13;97773.50;;;1.76;100.00
56668;BME280;42542;48.360;10.958;2024-01-27T02:26:15;97796.03;;;1.83;100.00
56668;BME280;42542;48.360;10.958;2024-01-27T02:29:17;97789.91;;;1.82;100.00
56668;BME280;42542;48.360;10.958;2024-01-27T02:32:19;97793.56;;;1.80;100.00
56668;BME280;42542;48.360;10.958;2024-01-27T02:35:21;97803.16;;;1.81;100.00
56668;BME280;42542;48.360;10.958;2024-01-27T02:38:23;97803.31;;;1.78;100.00
56668;BME280;42542;48.360;10.958;2024-01-27T02:41:25;97803.66;;;1.70;100.00
56668;BME280;42542;48.360;10.958;2024-01-27T02:44:27;97800.38;;;1.65;100.00
56668;BME280;42542;48.360;10.958;2024-01-27T02:47:29;97798.78;;;1.61;100.00
56668;BME280;42542;48.360;10.958;2024-01-27T02:50:31;97801.56;;;1.58;100.00
56668;BME280;42542;48.360;10.958;2024-01-27T02:53:33;97800.03;;;1.52;100.00
56668;BME280;42542;48.360;10.958;2024-01-27T02:56:36;97800.47;;;1.43;100.00
56668;BME280;42542;48.360;10.958;2024-01-27T02:59:38;97804.03;;;1.42;100.00
56668;BME280;42542;48.360;10.958;2024-01-27T03:02:41;97815.69;;;1.37;100.00
56668;BME280;42542;48.360;10.958;2024-01-27T03:05:42;97812.31;;;1.33;100.00
56668;BME280;42542;48.360;10.958;2024-01-27T03:08:45;97815.06;;;1.30;100.00
56668;BME280;42542;48.360;10.958;2024-01-27T03:11:47;97817.91;;;1.26;100.00
56668;BME280;42542;48.360;10.958;2024-01-27T03:14:49;97825.75;;;1.27;100.00
56668;BME280;42542;48.360;10.958;2024-01-27T03:17:52;97832.06;;;1.23;100.00
56668;BME280;42542;48.360;10.958;2024-01-27T03:20:54;97834.91;;;1.18;100.00
56668;BME280;42542;48.360;10.958;2024-01-27T03:23:56;97834.09;;;1.16;100.00
56668;BME280;42542;48.360;10.958;2024-01-27T03:26:58;97835.13;;;1.14;100.00
56668;BME280;42542;48.360;10.958;2024-01-27T03:30:00;97836.94;;;1.12;100.00
56668;BME280;42542;48.360;10.958;2024-01-27T03:33:06;97835.16;;;1.12;100.00
56668;BME280;42542;48.360;10.958;2024-01-27T03:36:13;97833.34;;;1.14;100.00
56668;BME280;42542;48.360;10.958;2024-01-27T03:39:15;97835.81;;;1.17;100.00
56668;BME280;42542;48.360;10.958;2024-01-27T03:42:17;97841.94;;;1.18;100.00
56668;BME280;42542;48.360;10.958;2024-01-27T03:45:18;97844.53;;;1.20;100.00
56668;BME280;42542;48.360;10.958;2024-01-27T03:48:21;97844.47;;;1.21;100.00
56668;BME280;42542;48.360;10.958;2024-01-27T03:51:23;97845.19;;;1.25;100.00
56668;BME280;42542;48.360;10.958;2024-01-27T03:54:27;97845.06;;;1.28;100.00
56668;BME280;42542;48.360;10.958;2024-01-27T03:57:56;97855.44;;;1.31;100.00
56668;BME280;42542;48.360;10.958;2024-01-27T04:00:57;97851.91;;;1.32;100.00
56668;BME280;42542;48.360;10.958;2024-01-27T04:04:00;97850.97;;;1.33;100.00
56668;BME280;42542;48.360;10.958;2024-01-27T04:07:01;97858.09;;;1.31;100.00
56668;BME280;42542;48.360;10.958;2024-01-27T04:10:04;97863.44;;;1.29;100.00
56668;BME280;42542;48.360;10.958;2024-01-27T04:13:06;97855.59;;;1.28;100.00
56668;BME280;42542;48.360;10.958;2024-01-27T04:16:08;97849.59;;;1.24;100.00
56668;BME280;42542;48.360;10.958;2024-01-27T04:19:10;97853.13;;;1.23;100.00
56668;BME280;42542;48.360;10.958;2024-01-27T04:22:13;97848.00;;;1.20;100.00
56668;BME280;42542;48.360;10.958;2024-01-27T04:25:14;97847.22;;;1.18;100.00
56668;BME280;42542;48.360;10.958;2024-01-27T04:28:16;97845.56;;;1.15;100.00
56668;BME280;42542;48.360;10.958;2024-01-27T04:31:18;97849.13;;;1.14;100.00
56668;BME280;42542;48.360;10.958;2024-01-27T04:34:21;97849.25;;;1.11;100.00
56668;BME280;42542;48.360;10.958;2024-01-27T04:37:23;97847.53;;;1.10;100.00
56668;BME280;42542;48.360;10.958;2024-01-27T04:40:26;97849.31;;;1.10;100.00
56668;BME280;42542;48.360;10.958;2024-01-27T04:43:27;97852.00;;;1.08;100.00
56668;BME280;42542;48.360;10.958;2024-01-27T04:46:31;97849.38;;;1.08;100.00
56668;BME280;42542;48.360;10.958;2024-01-27T04:49:33;97858.06;;;1.10;100.00
56668;BME280;42542;48.360;10.958;2024-01-27T04:52:35;97861.56;;;1.11;100.00
56668;BME280;42542;48.360;10.958;2024-01-27T04:55:37;97865.84;;;1.13;100.00
56668;BME280;42542;48.360;10.958;2024-01-27T04:58:39;97861.50;;;1.12;100.00
56668;BME280;42542;48.360;10.958;2024-01-27T05:01:45;97871.13;;;1.13;100.00
56668;BME280;42542;48.360;10.958;2024-01-27T05:04:47;97876.34;;;1.15;100.00
56668;BME280;42542;48.360;10.958;2024-01-27T05:07:49;97875.47;;;1.14;100.00
56668;BME280;42542;48.360;10.958;2024-01-27T05:10:52;97888.69;;;1.13;100.00
56668;BME280;42542;48.360;10.958;2024-01-27T05:13:59;97877.56;;;1.06;100.00
56668;BME280;42542;48.360;10.958;2024-01-27T05:17:02;97887.03;;;1.10;100.00
56668;BME280;42542;48.360;10.958;2024-01-27T05:20:04;97885.47;;;1.06;100.00
56668;BME280;42542;48.360;10.958;2024-01-27T05:23:06;97881.22;;;1.02;100.00
56668;BME280;42542;48.360;10.958;2024-01-27T05:26:08;97880.69;;;0.94;100.00
56668;BME280;42542;48.360;10.958;2024-01-27T05:29:12;97875.66;;;0.88;100.00
56668;BME280;42542;48.360;10.958;2024-01-27T05:32:14;97879.34;;;0.84;100.00
56668;BME280;42542;48.360;10.958;2024-01-27T05:35:16;97885.72;;;0.78;100.00
56668;BME280;42542;48.360;10.958;2024-01-27T05:38:17;97886.91;;;0.71;100.00
56668;BME280;42542;48.360;10.958;2024-01-27T05:41:19;97883.56;;;0.66;100.00
56668;BME280;42542;48.360;10.958;2024-01-27T05:44:21;97897.53;;;0.68;100.00
56668;BME280;42542;48.360;10.958;2024-01-27T05:47:23;97902.84;;;0.67;100.00
56668;BME280;42542;48.360;10.958;2024-01-27T05:50:25;97902.91;;;0.65;100.00
56668;BME280;42542;48.360;10.958;2024-01-27T05:53:27;97913.56;;;0.62;100.00
56668;BME280;42542;48.360;10.958;2024-01-27T05:56:29;97915.44;;;0.59;100.00
56668;BME280;42542;48.360;10.958;2024-01-27T05:59:32;97905.28;;;0.50;100.00
56668;BME280;42542;48.360;10.958;2024-01-27T06:02:33;97922.63;;;0.55;100.00
56668;BME280;42542;48.360;10.958;2024-01-27T06:05:36;97929.59;;;0.56;100.00
56668;BME280;42542;48.360;10.958;2024-01-27T06:08:38;97924.34;;;0.56;100.00
56668;BME280;42542;48.360;10.958;2024-01-27T06:11:40;97932.31;;;0.53;100.00
56668;BME280;42542;48.360;10.958;2024-01-27T06:14:42;97935.16;;;0.49;100.00
56668;BME280;42542;48.360;10.958;2024-01-27T06:17:45;97946.00;;;0.39;100.00
56668;BME280;42542;48.360;10.958;2024-01-27T06:20:46;97944.53;;;0.32;100.00
56668;BME280;42542;48.360;10.958;2024-01-27T06:23:49;97945.56;;;0.28;100.00
56668;BME280;42542;48.360;10.958;2024-01-27T06:26:51;97953.72;;;0.21;100.00
56668;BME280;42542;48.360;10.958;2024-01-27T06:29:53;97946.13;;;0.13;100.00
56668;BME280;42542;48.360;10.958;2024-01-27T06:32:55;97956.88;;;0.07;100.00
56668;BME280;42542;48.360;10.958;2024-01-27T06:35:56;97946.56;;;0.01;100.00
56668;BME280;42542;48.360;10.958;2024-01-27T06:38:58;97959.81;;;-0.02;100.00
56668;BME280;42542;48.360;10.958;2024-01-27T06:42:00;97961.72;;;-0.07;100.00
56668;BME280;42542;48.360;10.958;2024-01-27T06:45:02;97958.41;;;-0.12;100.00
56668;BME280;42542;48.360;10.958;2024-01-27T06:48:05;97968.06;;;-0.13;100.00
56668;BME280;42542;48.360;10.958;2024-01-27T06:51:07;97968.19;;;-0.16;100.00
56668;BME280;42542;48.360;10.958;2024-01-27T06:54:10;97963.09;;;-0.20;100.00
56668;BME280;42542;48.360;10.958;2024-01-27T06:57:18;97966.75;;;-0.24;100.00
56668;BME280;42542;48.360;10.958;2024-01-27T07:00:23;97965.06;;;-0.27;100.00
56668;BME280;42542;48.360;10.958;2024-01-27T07:03:25;97956.59;;;-0.35;100.00
56668;BME280;42542;48.360;10.958;2024-01-27T07:06:27;97965.25;;;-0.31;100.00
56668;BME280;42542;48.360;10.958;2024-01-27T07:09:28;97969.72;;;-0.35;100.00
56668;BME280;42542;48.360;10.958;2024-01-27T07:12:30;97962.09;;;-0.43;100.00
56668;BME280;42542;48.360;10.958;2024-01-27T07:15:32;97978.59;;;-0.37;100.00
56668;BME280;42542;48.360;10.958;2024-01-27T07:18:34;97988.31;;;-0.41;100.00
56668;BME280;42542;48.360;10.958;2024-01-27T07:21:37;97989.22;;;-0.42;100.00
56668;BME280;42542;48.360;10.958;2024-01-27T07:24:40;97988.38;;;-0.43;100.00
56668;BME280;42542;48.360;10.958;2024-01-27T07:27:42;97984.16;;;-0.47;100.00
56668;BME280;42542;48.360;10.958;2024-01-27T07:30:45;97976.19;;;-0.44;100.00
56668;BME280;42542;48.360;10.958;2024-01-27T07:33:48;97980.63;;;-0.46;100.00
56668;BME280;42542;48.360;10.958;2024-01-27T07:36:50;97978.00;;;-0.46;100.00
56668;BME280;42542;48.360;10.958;2024-01-27T07:39:52;97979.72;;;-0.45;100.00
56668;BME280;42542;48.360;10.958;2024-01-27T07:42:54;97980.56;;;-0.44;100.00
56668;BME280;42542;48.360;10.958;2024-01-27T07:45:56;97977.94;;;-0.44;100.00
56668;BME280;42542;48.360;10.958;2024-01-27T07:48:58;97978.91;;;-0.47;100.00
56668;BME280;42542;48.360;10.958;2024-01-27T07:52:00;97978.81;;;-0.44;100.00
56668;BME280;42542;48.360;10.958;2024-01-27T07:55:02;97971.88;;;-0.46;100.00
56668;BME280;42542;48.360;10.958;2024-01-27T07:58:05;97976.06;;;-0.41;100.00
56668;BME280;42542;48.360;10.958;2024-01-27T08:01:07;97982.13;;;-0.38;100.00
56668;BME280;42542;48.360;10.958;2024-01-27T08:04:09;97973.38;;;-0.39;100.00
56668;BME280;42542;48.360;10.958;2024-01-27T08:07:11;97981.06;;;-0.33;100.00
56668;BME280;42542;48.360;10.958;2024-01-27T08:10:16;97977.69;;;-0.36;100.00
56668;BME280;42542;48.360;10.958;2024-01-27T08:13:18;97979.97;;;-0.27;100.00
56668;BME280;42542;48.360;10.958;2024-01-27T08:16:20;97978.06;;;-0.22;100.00
56668;BME280;42542;48.360;10.958;2024-01-27T08:19:21;97984.06;;;-0.19;100.00
56668;BME280;42542;48.360;10.958;2024-01-27T08:22:23;97984.81;;;-0.15;100.00
56668;BME280;42542;48.360;10.958;2024-01-27T08:25:25;97987.19;;;-0.08;100.00
56668;BME280;42542;48.360;10.958;2024-01-27T08:28:27;97978.19;;;-0.01;100.00
56668;BME280;42542;48.360;10.958;2024-01-27T08:31:29;97980.53;;;0.07;100.00
56668;BME280;42542;48.360;10.958;2024-01-27T08:34:31;97988.13;;;0.15;100.00
56668;BME280;42542;48.360;10.958;2024-01-27T08:37:32;97969.56;;;0.19;100.00
56668;BME280;42542;48.360;10.958;2024-01-27T08:40:40;97979.75;;;0.28;100.00
56668;BME280;42542;48.360;10.958;2024-01-27T08:43:42;97987.38;;;0.36;100.00
56668;BME280;42542;48.360;10.958;2024-01-27T08:46:44;97987.06;;;0.44;100.00
56668;BME280;42542;48.360;10.958;2024-01-27T08:49:46;97992.03;;;0.51;100.00
56668;BME280;42542;48.360;10.958;2024-01-27T08:52:47;97997.91;;;0.58;100.00
56668;BME280;42542;48.360;10.958;2024-01-27T08:55:50;98003.94;;;0.61;100.00
56668;BME280;42542;48.360;10.958;2024-01-27T08:58:52;97997.53;;;0.68;100.00
56668;BME280;42542;48.360;10.958;2024-01-27T09:01:54;98017.44;;;0.75;100.00
56668;BME280;42542;48.360;10.958;2024-01-27T09:04:56;98010.34;;;0.77;100.00
56668;BME280;42542;48.360;10.958;2024-01-27T09:07:59;98005.66;;;0.86;100.00
56668;BME280;42542;48.360;10.958;2024-01-27T09:11:03;98013.38;;;0.90;100.00
56668;BME280;42542;48.360;10.958;2024-01-27T09:14:05;98013.19;;;0.95;100.00
56668;BME280;42542;48.360;10.958;2024-01-27T09:17:08;98019.19;;;0.98;100.00
56668;BME280;42542;48.360;10.958;2024-01-27T09:20:11;98021.63;;;1.03;100.00
56668;BME280;42542;48.360;10.958;2024-01-27T09:23:13;98028.53;;;1.07;100.00
56668;BME280;42542;48.360;10.958;2024-01-27T09:26:15;98018.72;;;1.10;100.00
56668;BME280;42542;48.360;10.958;2024-01-27T09:29:19;98024.47;;;1.20;100.00
56668;BME280;42542;48.360;10.958;2024-01-27T09:32:22;98029.31;;;1.31;100.00
56668;BME280;42542;48.360;10.958;2024-01-27T09:35:23;98032.25;;;1.45;100.00
56668;BME280;42542;48.360;10.958;2024-01-27T09:38:26;98028.28;;;1.56;100.00
56668;BME280;42542;48.360;10.958;2024-01-27T09:41:30;98028.03;;;1.63;100.00
56668;BME280;42542;48.360;10.958;2024-01-27T09:44:35;98032.31;;;1.65;100.00
56668;BME280;42542;48.360;10.958;2024-01-27T09:47:38;98031.19;;;1.71;100.00
56668;BME280;42542;48.360;10.958;2024-01-27T09:50:41;98022.28;;;1.73;100.00
56668;BME280;42542;48.360;10.958;2024-01-27T09:53:43;98029.03;;;1.80;100.00
56668;BME280;42542;48.360;10.958;2024-01-27T09:56:46;98032.34;;;1.85;100.00
56668;BME280;42542;48.360;10.958;2024-01-27T09:59:49;98016.38;;;1.88;100.00
56668;BME280;42542;48.360;10.958;2024-01-27T10:02:51;98020.41;;;1.97;100.00
56668;BME280;42542;48.360;10.958;2024-01-27T10:05:54;98017.44;;;2.05;100.00
56668;BME280;42542;48.360;10.958;2024-01-27T10:08:57;98018.91;;;2.12;100.00
56668;BME280;42542;48.360;10.958;2024-01-27T10:12:01;98016.84;;;2.18;99.56
56668;BME280;42542;48.360;10.958;2024-01-27T10:15:04;98018.28;;;2.25;97.71
56668;BME280;42542;48.360;10.958;2024-01-27T10:18:07;98018.13;;;2.30;97.38
56668;BME280;42542;48.360;10.958;2024-01-27T10:21:17;98013.31;;;2.38;97.39
56668;BME280;42542;48.360;10.958;2024-01-27T10:24:19;98005.06;;;2.46;96.81
56668;BME280;42542;48.360;10.958;2024-01-27T10:27:22;98003.09;;;2.51;95.32
56668;BME280;42542;48.360;10.958;2024-01-27T10:30:23;98013.44;;;2.55;95.43
56668;BME280;42542;48.360;10.958;2024-01-27T10:33:26;98016.94;;;2.56;94.88
56668;BME280;42542;48.360;10.958;2024-01-27T10:36:43;98014.81;;;2.64;94.44
56668;BME280;42542;48.360;10.958;2024-01-27T10:39:48;98018.25;;;2.66;93.02
56668;BME280;42542;48.360;10.958;2024-01-27T10:46:05;98013.31;;;2.77;93.73
56668;BME280;42542;48.360;10.958;2024-01-27T10:49:10;98019.47;;;2.78;93.77
56668;BME280;42542;48.360;10.958;2024-01-27T10:52:15;98017.63;;;2.80;93.78
56668;BME280;42542;48.360;10.958;2024-01-27T10:55:20;98005.28;;;2.80;93.61
56668;BME280;42542;48.360;10.958;2024-01-27T10:58:23;98010.41;;;2.83;92.39
56668;BME280;42542;48.360;10.958;2024-01-27T11:01:26;98012.13;;;2.84;93.64
56668;BME280;42542;48.360;10.958;2024-01-27T11:04:29;98008.50;;;2.87;93.72
56668;BME280;42542;48.360;10.958;2024-01-27T11:07:34;98005.63;;;2.91;94.88
56668;BME280;42542;48.360;10.958;2024-01-27T11:10:37;98004.69;;;2.92;94.57
56668;BME280;42542;48.360;10.958;2024-01-27T11:13:39;98010.78;;;2.94;94.42
56668;BME280;42542;48.360;10.958;2024-01-27T11:16:42;98000.13;;;2.96;94.67
56668;BME280;42542;48.360;10.958;2024-01-27T11:19:50;97993.03;;;2.96;93.85
56668;BME280;42542;48.360;10.958;2024-01-27T11:22:52;97993.78;;;3.00;94.20
56668;BME280;42542;48.360;10.958;2024-01-27T11:26:03;97992.06;;;2.99;94.31
56668;BME280;42542;48.360;10.958;2024-01-27T11:29:06;97988.19;;;3.06;93.64
56668;BME280;42542;48.360;10.958;2024-01-27T11:32:09;97982.06;;;3.05;93.61
56668;BME280;42542;48.360;10.958;2024-01-27T11:35:17;97990.63;;;3.10;92.58
56668;BME280;42542;48.360;10.958;2024-01-27T11:38:19;97991.41;;;3.12;91.96
56668;BME280;42542;48.360;10.958;2024-01-27T11:41:28;97999.25;;;3.14;91.50
56668;BME280;42542;48.360;10.958;2024-01-27T11:44:33;97992.88;;;3.18;90.24
56668;BME280;42542;48.360;10.958;2024-01-27T11:47:35;97998.03;;;3.21;89.36
56668;BME280;42542;48.360;10.958;2024-01-27T11:50:36;97981.41;;;3.19;88.46
56668;BME280;42542;48.360;10.958;2024-01-27T11:53:38;97988.88;;;3.28;88.51
56668;BME280;42542;48.360;10.958;2024-01-27T11:56:40;97973.09;;;3.27;88.87
56668;BME280;42542;48.360;10.958;2024-01-27T11:59:42;97977.88;;;3.37;88.78
56668;BME280;42542;48.360;10.958;2024-01-27T12:02:44;97966.16;;;3.43;87.83
56668;BME280;42542;48.360;10.958;2024-01-27T12:05:46;97958.75;;;3.49;87.90
56668;BME280;42542;48.360;10.958;2024-01-27T12:08:47;97966.47;;;3.54;87.39
56668;BME280;42542;48.360;10.958;2024-01-27T12:11:51;97959.31;;;3.56;87.52
56668;BME280;42542;48.360;10.958;2024-01-27T12:14:53;97954.81;;;3.58;86.37
56668;BME280;42542;48.360;10.958;2024-01-27T12:17:55;97965.00;;;3.66;86.24
56668;BME280;42542;48.360;10.958;2024-01-27T12:20:57;97960.41;;;3.69;84.58
56668;BME280;42542;48.360;10.958;2024-01-27T12:23:59;97964.69;;;3.72;84.96
56668;BME280;42542;48.360;10.958;2024-01-27T12:27:02;97953.13;;;3.74;84.58
56668;BME280;42542;48.360;10.958;2024-01-27T12:30:04;97958.31;;;3.76;85.87
56668;BME280;42542;48.360;10.958;2024-01-27T12:33:11;97951.16;;;3.78;85.98
56668;BME280;42542;48.360;10.958;2024-01-27T12:36:14;97950.22;;;3.79;85.96
56668;BME280;42542;48.360;10.958;2024-01-27T12:39:16;97944.88;;;3.80;84.80
56668;BME280;42542;48.360;10.958;2024-01-27T12:42:18;97948.19;;;3.84;84.92
56668;BME280;42542;48.360;10.958;2024-01-27T12:45:19;97945.63;;;3.82;84.63
56668;BME280;42542;48.360;10.958;2024-01-27T12:48:22;97938.41;;;3.86;85.01
56668;BME280;42542;48.360;10.958;2024-01-27T12:51:24;97929.53;;;3.87;84.82
56668;BME280;42542;48.360;10.958;2024-01-27T12:54:26;97928.44;;;3.91;85.20
56668;BME280;42542;48.360;10.958;2024-01-27T12:57:28;97923.06;;;3.92;84.96
56668;BME280;42542;48.360;10.958;2024-01-27T13:00:31;97926.56;;;3.93;84.72
56668;BME280;42542;48.360;10.958;2024-01-27T13:03:32;97917.78;;;3.92;84.78
56668;BME280;42542;48.360;10.958;2024-01-27T13:06:36;97916.84;;;3.93;84.22
56668;BME280;42542;48.360;10.958;2024-01-27T13:09:39;97919.25;;;3.98;83.58
56668;BME280;42542;48.360;10.958;2024-01-27T13:12:42;97910.44;;;3.98;83.61
56668;BME280;42542;48.360;10.958;2024-01-27T13:15:43;97912.16;;;3.99;84.16
56668;BME280;42542;48.360;10.958;2024-01-27T13:18:46;97908.59;;;4.00;84.16
56668;BME280;42542;48.360;10.958;2024-01-27T13:21:48;97910.38;;;3.99;84.78
56668;BME280;42542;48.360;10.958;2024-01-27T13:24:50;97893.56;;;4.00;84.88
56668;BME280;42542;48.360;10.958;2024-01-27T13:27:52;97895.28;;;4.01;84.76
56668;BME280;42542;48.360;10.958;2024-01-27T13:30:53;97899.53;;;4.04;84.34
56668;BME280;42542;48.360;10.958;2024-01-27T13:33:58;97890.66;;;4.05;83.80
56668;BME280;42542;48.360;10.958;2024-01-27T13:37:03;97872.41;;;4.00;83.29
56668;BME280;42542;48.360;10.958;2024-01-27T13:40:33;97881.72;;;4.07;82.99
56668;BME280;42542;48.360;10.958;2024-01-27T13:43:35;97879.84;;;4.09;83.06
56668;BME280;42542;48.360;10.958;2024-01-27T13:46:36;97888.47;;;4.13;83.42
56668;BME280;42542;48.360;10.958;2024-01-27T13:49:38;97890.19;;;4.14;83.23
56668;BME280;42542;48.360;10.958;2024-01-27T13:52:41;97881.56;;;4.10;83.05
56668;BME280;42542;48.360;10.958;2024-01-27T13:55:47;97886.34;;;4.19;83.35
56668;BME280;42542;48.360;10.958;2024-01-27T13:58:51;97889.00;;;4.19;82.73
56668;BME280;42542;48.360;10.958;2024-01-27T14:01:53;97897.56;;;4.24;82.43
56668;BME280;42542;48.360;10.958;2024-01-27T14:04:55;97901.81;;;4.27;80.98
56668;BME280;42542;48.360;10.958;2024-01-27T14:07:56;97905.94;;;4.32;81.13
56668;BME280;42542;48.360;10.958;2024-01-27T14:10:58;97906.56;;;4.38;81.28
56668;BME280;42542;48.360;10.958;2024-01-27T14:14:00;97905.78;;;4.36;81.13
56668;BME280;42542;48.360;10.958;2024-01-27T14:17:03;97912.38;;;4.44;81.06
56668;BME280;42542;48.360;10.958;2024-01-27T14:20:05;97925.53;;;4.46;81.20
56668;BME280;42542;48.360;10.958;2024-01-27T14:23:07;97907.00;;;4.46;80.23
56668;BME280;42542;48.360;10.958;2024-01-27T14:26:09;97900.75;;;4.47;80.93
56668;BME280;42542;48.360;10.958;2024-01-27T14:29:16;97898.94;;;4.47;79.75
56668;BME280;42542;48.360;10.958;2024-01-27T14:32:19;97908.69;;;4.47;79.93
56668;BME280;42542;48.360;10.958;2024-01-27T14:35:20;97918.25;;;4.49;79.43
56668;BME280;42542;48.360;10.958;2024-01-27T14:38:22;97905.97;;;4.48;79.57
56668;BME280;42542;48.360;10.958;2024-01-27T14:41:24;97894.50;;;4.48;79.33
56668;BME280;42542;48.360;10.958;2024-01-27T14:44:26;97893.75;;;4.46;78.19
56668;BME280;42542;48.360;10.958;2024-01-27T14:47:28;97883.31;;;4.43;77.93
56668;BME280;42542;48.360;10.958;2024-01-27T14:50:30;97884.09;;;4.45;77.43
56668;BME280;42542;48.360;10.958;2024-01-27T14:53:32;97884.25;;;4.42;77.28
56668;BME280;42542;48.360;10.958;2024-01-27T14:56:35;97876.50;;;4.39;77.71
56668;BME280;42542;48.360;10.958;2024-01-27T14:59:38;97880.09;;;4.38;76.94
56668;BME280;42542;48.360;10.958;2024-01-27T15:02:41;97880.09;;;4.38;77.17
56668;BME280;42542;48.360;10.958;2024-01-27T15:05:46;97879.44;;;4.32;76.92
56668;BME280;42542;48.360;10.958;2024-01-27T15:08:48;97896.19;;;4.33;75.71
56668;BME280;42542;48.360;10.958;2024-01-27T15:11:51;97884.06;;;4.29;76.09
56668;BME280;42542;48.360;10.958;2024-01-27T15:14:53;97890.16;;;4.31;77.39
56668;BME280;42542;48.360;10.958;2024-01-27T15:17:56;97881.69;;;4.24;77.54
56668;BME280;42542;48.360;10.958;2024-01-27T15:21:03;97872.25;;;4.19;78.07
56668;BME280;42542;48.360;10.958;2024-01-27T15:24:05;97871.59;;;4.15;77.82
56668;BME280;42542;48.360;10.958;2024-01-27T15:27:08;97876.34;;;4.09;77.88
56668;BME280;42542;48.360;10.958;2024-01-27T15:30:13;97881.88;;;4.04;79.77
56668;BME280;42542;48.360;10.958;2024-01-27T15:33:15;97875.38;;;3.94;78.70
56668;BME280;42542;48.360;10.958;2024-01-27T15:36:18;97878.34;;;3.88;79.38
56668;BME280;42542;48.360;10.958;2024-01-27T15:39:20;97885.63;;;3.83;80.64
56668;BME280;42542;48.360;10.958;2024-01-27T15:42:22;97881.59;;;3.76;80.00
56668;BME280;42542;48.360;10.958;2024-01-27T15:45:24;97881.06;;;3.69;80.51
56668;BME280;42542;48.360;10.958;2024-01-27T15:48:26;97886.59;;;3.65;80.80
56668;BME280;42542;48.360;10.958;2024-01-27T15:51:30;97886.06;;;3.58;82.54
56668;BME280;42542;48.360;10.958;2024-01-27T15:54:32;97882.03;;;3.51;82.42
56668;BME280;42542;48.360;10.958;2024-01-27T15:57:34;97889.31;;;3.46;83.59
56668;BME280;42542;48.360;10.958;2024-01-27T16:00:36;97886.22;;;3.38;84.00